Airfield :
LOGIN :

Register | Disclaimer

   EN    FR    IT 

 










Legend :    VFR   Marginal VFR   IFR   Intensive IFR   Very Intensive IFR
Visi :
Ceiling :
>= 8 km
>= 3000ft
5 to 8 km
1000 to 3000 ft
1500m to 5 km
500 to 1000 ft
800 to 1500m
200 to 500 ft
< 800m
< 200 ft
Symbols :   Thunderstorms  Fog  Heavy snow  Heavy precipitations  Wind > 20 kt
SIGMETs :     Misc.  Thunderstorms  Icing  Turbulence  Mountain Waves  Volcanic Ashes






- Airport Elevation : 160 ft
- IATA code : FMO


EDDG - Münster Osnabrück Int.

CURRENT METAR :
  • 281950Z 30007KT 270V340 9999 FEW048 11/05 Q1018 NOSIG

EXPIRED METARs :
  • 281920Z 32010KT 280V340 9999 FEW037 12/04 Q1018 BECMG 28005KT
  • 281850Z 32008KT 270V350 9999 VCSH FEW039CB 12/05 Q1018 NOSIG
  • 281820Z 33009KT 290V360 9999 FEW044 13/05 Q1018 NOSIG
  • 281750Z 31011KT 280V340 9999 FEW044 14/03 Q1018 BECMG 29006KT
  • 281720Z 31008KT 260V350 9999 FEW042 14/05 Q1018 NOSIG

TAF TAF EDDG
Valid from the 28 at 18:00 until the 29 at 18:00 UTC


281700Z 2818/2918 28005KT CAVOK
BECMG 2906/2909 32010KT
TEMPO 2911/2917 SHRA BKN030CB



MET'MAP, your aeronautical weather chart ! - Copyright ORBIFLY December 2007 - Disclaimer

ORBIFLY MET'MAP TEAM :

Programming & Development : Alexandra Zaïnal
Original concept : Baudouin d'Aumeries
Technical & hardware support : Manuel Goepfert
Assistance : Marc-Olivier Méhu

Contact : metmap@orbifly.com




SOURCES & CREDITS :

   NOAA